Time;durP1;ratioP1;P1;durP2;ratioP2;P2;SDS_P1;SDS_P2;PMS_P1;PMS_P2;Temp;Humidity;BMP_temperature;BMP_pressure;BME280_temperature;BME280_humidity;BME280_pressure;Samples;Min_cycle;Max_cycle;Signal;HPM_P1;HPM_P2
2021/05/12 00:01:10;;;;;;;;;;;;;;;18.95;53.03;100655.56;5047535;28;1914;-60
2021/05/12 00:03:36;;;;;;;;;;;;;;;18.96;52.81;100649.25;5049996;28;1550;-57
2021/05/12 00:06:03;;;;;;;;;;;;;;;18.97;52.77;100666.16;5049437;28;1614;-57
2021/05/12 00:08:29;;;;;;;;;;;;;;;18.94;52.62;100653.91;5051895;28;1768;-57
2021/05/12 00:10:55;;;;;;;;;;;;;;;18.94;52.70;100650.34;5043519;28;1070;-57
2021/05/12 00:13:22;;;;;;;;;;;;;;;18.94;52.63;100650.34;5046260;28;1545;-60
2021/05/12 00:15:49;;;;;;;;;;;;;;;18.96;53.08;100635.84;5047128;28;1626;-57
2021/05/12 00:18:19;;;;;;;;;;;;;;;18.96;52.66;100638.53;5049047;28;1453;-57
2021/05/12 00:20:45;;;;;;;;;;;;;;;18.96;52.76;100646.56;5045436;28;1906;-60
2021/05/12 00:23:14;;;;;;;;;;;;;;;18.95;52.83;100644.03;5047977;28;1622;-60
2021/05/12 00:25:40;;;;;;;;;;;;;;;18.94;52.86;100619.06;5045117;28;1040;-61
2021/05/12 00:28:06;;;;;;;;;;;;;;;18.92;52.85;100629.06;5044731;28;1554;-60
2021/05/12 00:30:33;;;;;;;;;;;;;;;18.92;52.58;100636.25;5046396;28;1633;-57
2021/05/12 00:32:59;;;;;;;;;;;;;;;18.88;52.61;100633.03;5054494;28;1550;-57
2021/05/12 00:35:25;;;;;;;;;;;;;;;18.88;52.52;100630.34;5046990;28;1461;-60
2021/05/12 00:37:51;;;;;;;;;;;;;;;18.88;52.66;100635.69;5046012;28;1597;-60
2021/05/12 00:40:18;;;;;;;;;;;;;;;18.85;52.33;100610.00;5044636;28;1973;-61
2021/05/12 00:42:44;;;;;;;;;;;;;;;18.90;52.47;100624.81;5044519;28;1543;-57
2021/05/12 00:45:12;;;;;;;;;;;;;;;18.87;52.66;100621.44;5047975;28;1161;-57
2021/05/12 00:47:39;;;;;;;;;;;;;;;18.85;52.05;100615.38;5046565;28;1629;-58
2021/05/12 00:50:06;;;;;;;;;;;;;;;18.85;52.74;100606.50;5050992;28;1717;-60
2021/05/12 00:52:32;;;;;;;;;;;;;;;18.86;53.24;100610.84;5046509;28;1578;-60
2021/05/12 00:54:58;;;;;;;;;;;;;;;18.87;52.59;100613.41;5046218;28;1997;-60
2021/05/12 00:57:25;;;;;;;;;;;;;;;18.86;52.90;100602.81;5043214;28;1602;-56
2021/05/12 00:59:52;;;;;;;;;;;;;;;18.84;52.85;100594.06;5048191;28;1511;-60
2021/05/12 01:02:18;;;;;;;;;;;;;;;18.83;52.49;100603.09;5050056;28;1902;-61
2021/05/12 01:04:46;;;;;;;;;;;;;;;18.80;52.53;100589.97;5046111;28;1558;-57
2021/05/12 01:07:12;;;;;;;;;;;;;;;18.78;52.42;100575.84;5046548;28;1089;-60
2021/05/12 01:09:38;;;;;;;;;;;;;;;18.80;52.45;100582.81;5045781;28;1581;-61
2021/05/12 01:12:04;;;;;;;;;;;;;;;18.80;52.08;100579.25;5054838;28;1662;-61
2021/05/12 01:14:31;;;;;;;;;;;;;;;18.81;52.83;100576.44;5045798;28;1622;-60
2021/05/12 01:16:57;;;;;;;;;;;;;;;18.81;52.58;100572.94;5046082;28;1567;-60
2021/05/12 01:19:23;;;;;;;;;;;;;;;18.80;53.15;100568.53;5047662;28;1087;-57
2021/05/12 01:21:50;;;;;;;;;;;;;;;18.79;52.59;100566.81;5044586;28;1906;-60
2021/05/12 01:24:16;;;;;;;;;;;;;;;18.81;52.64;100567.56;5050369;28;1780;-57
2021/05/12 01:26:42;;;;;;;;;;;;;;;18.82;52.77;100561.22;5036879;28;1747;-60
2021/05/12 01:29:09;;;;;;;;;;;;;;;18.77;52.73;100561.59;5047211;28;990;-57
2021/05/12 01:31:36;;;;;;;;;;;;;;;18.74;52.49;100569.06;5048316;28;1752;-56
2021/05/12 01:34:03;;;;;;;;;;;;;;;18.73;52.10;100556.66;5047483;28;1547;-61
2021/05/12 01:36:30;;;;;;;;;;;;;;;18.73;51.96;100552.16;5045781;28;1566;-60
2021/05/12 01:38:57;;;;;;;;;;;;;;;18.71;52.07;100553.28;5045436;28;1563;-58
2021/05/12 01:41:24;;;;;;;;;;;;;;;18.72;51.78;100563.88;5038403;28;1902;-61
2021/05/12 01:43:51;;;;;;;;;;;;;;;18.71;51.86;100556.81;5047376;28;1729;-57
2021/05/12 01:46:17;;;;;;;;;;;;;;;18.70;52.04;100555.09;5046330;28;1735;-60
2021/05/12 01:48:43;;;;;;;;;;;;;;;18.69;51.54;100545.38;5048582;28;1681;-60
2021/05/12 01:51:10;;;;;;;;;;;;;;;18.71;51.76;100556.81;5045369;28;1598;-60
2021/05/12 01:53:36;;;;;;;;;;;;;;;18.69;51.59;100551.56;5045168;28;1488;-56
2021/05/12 01:56:04;;;;;;;;;;;;;;;18.69;51.45;100530.16;5040977;28;1055;-60
2021/05/12 01:58:30;;;;;;;;;;;;;;;18.68;51.24;100543.66;5045791;28;1737;-60
2021/05/12 02:10:13;;;;;;;;;;;;;;;18.71;51.78;100543.41;5030965;28;1095;-49
2021/05/12 02:12:40;;;;;;;;;;;;;;;18.68;51.96;100538.31;4967849;28;1479;-61
2021/05/12 02:15:07;;;;;;;;;;;;;;;18.67;52.32;100536.63;4977145;28;1728;-57
2021/05/12 02:17:33;;;;;;;;;;;;;;;18.64;52.04;100532.41;4980034;28;1582;-61
2021/05/12 02:20:00;;;;;;;;;;;;;;;18.64;52.18;100521.69;4975115;28;1484;-56
2021/05/12 02:22:26;;;;;;;;;;;;;;;18.65;51.82;100533.25;4971386;28;1906;-57
2021/05/12 02:24:52;;;;;;;;;;;;;;;18.65;51.65;100527.91;4971478;28;1649;-57
2021/05/12 02:27:18;;;;;;;;;;;;;;;18.64;51.72;100532.41;4972977;28;1506;-56
2021/05/12 02:29:45;;;;;;;;;;;;;;;18.62;51.43;100522.81;4980253;28;1063;-56
2021/05/12 02:32:11;;;;;;;;;;;;;;;18.61;51.35;100527.31;4979931;28;1780;-59
2021/05/12 02:34:37;;;;;;;;;;;;;;;18.65;51.58;100520.69;4979022;28;1695;-56
2021/05/12 02:37:03;;;;;;;;;;;;;;;18.63;51.44;100520.00;4975314;28;1624;-60
2021/05/12 02:39:29;;;;;;;;;;;;;;;18.61;51.38;100516.59;4971256;28;1620;-60
2021/05/12 02:41:55;;;;;;;;;;;;;;;18.61;51.67;100508.56;4967716;28;1902;-60
2021/05/12 02:44:21;;;;;;;;;;;;;;;18.59;50.90;100521.25;4969115;28;1496;-56
2021/05/12 02:46:48;;;;;;;;;;;;;;;18.57;51.01;100525.91;4971243;28;1569;-60
2021/05/12 02:49:14;;;;;;;;;;;;;;;18.58;51.25;100516.91;4971012;28;1578;-56
2021/05/12 02:51:40;;;;;;;;;;;;;;;18.56;51.06;100516.19;4975174;28;1526;-61
2021/05/12 02:54:07;;;;;;;;;;;;;;;18.56;51.10;100508.16;4979323;28;1577;-57
2021/05/12 02:56:33;;;;;;;;;;;;;;;18.61;50.88;100505.06;4980038;28;1613;-57
2021/05/12 02:58:59;;;;;;;;;;;;;;;18.62;50.75;100504.06;4972867;28;1742;-56
2021/05/12 03:01:25;;;;;;;;;;;;;;;18.60;50.84;100509.56;4978920;28;1988;-57
2021/05/12 03:03:52;;;;;;;;;;;;;;;18.62;50.95;100501.38;4998881;28;1703;-60
2021/05/12 03:06:18;;;;;;;;;;;;;;;18.61;50.82;100510.41;4989968;28;1491;-60
2021/05/12 03:08:44;;;;;;;;;;;;;;;18.35;51.30;100464.59;4994516;28;1473;-61
2021/05/12 03:11:10;;;;;;;;;;;;;;;18.62;51.58;100510.28;5007386;28;1289;-60
2021/05/12 03:13:36;;;;;;;;;;;;;;;18.61;51.05;100500.53;5014372;28;1706;-56
2021/05/12 03:16:03;;;;;;;;;;;;;;;18.62;51.13;100496.91;5009695;28;1532;-61
2021/05/12 03:18:29;;;;;;;;;;;;;;;18.71;51.34;100491.69;5009538;28;1489;-61
2021/05/12 03:20:56;;;;;;;;;;;;;;;18.73;50.96;100503.09;5009331;28;1902;-60
2021/05/12 03:23:22;;;;;;;;;;;;;;;18.64;51.17;100500.28;5009777;28;1516;-57
2021/05/12 03:25:48;;;;;;;;;;;;;;;18.64;50.96;100502.94;5006519;28;1067;-57
2021/05/12 03:28:14;;;;;;;;;;;;;;;18.62;50.83;100501.38;5004931;28;1667;-56
2021/05/12 03:30:40;;;;;;;;;;;;;;;18.60;51.08;100488.16;5006749;28;1584;-56
2021/05/12 03:33:08;;;;;;;;;;;;;;;18.61;51.61;100494.34;5006116;28;1481;-58
2021/05/12 03:35:35;;;;;;;;;;;;;;;18.61;51.11;100489.81;5014166;28;1709;-57
2021/05/12 03:38:03;;;;;;;;;;;;;;;18.62;51.56;100480.81;5013046;28;1541;-57
2021/05/12 03:40:29;;;;;;;;;;;;;;;18.64;51.49;100473.50;5004677;28;1939;-60
2021/05/12 03:42:55;;;;;;;;;;;;;;;18.65;50.74;100479.69;5006377;28;1695;-60
2021/05/12 03:45:22;;;;;;;;;;;;;;;18.68;50.95;100474.91;5014905;28;1527;-57
2021/05/12 03:47:48;;;;;;;;;;;;;;;18.69;50.92;100465.03;5011988;28;1626;-60
2021/05/12 03:50:15;;;;;;;;;;;;;;;18.69;51.23;100473.06;5009572;28;1441;-57
2021/05/12 03:52:41;;;;;;;;;;;;;;;18.74;50.93;100464.59;5014970;28;1575;-56
2021/05/12 03:55:09;;;;;;;;;;;;;;;18.79;51.16;100473.94;5015470;28;931;-57
2021/05/12 03:57:35;;;;;;;;;;;;;;;18.84;50.71;100476.19;5014489;28;1686;-57
2021/05/12 04:00:01;;;;;;;;;;;;;;;18.90;50.89;100459.56;5012776;28;1474;-56
2021/05/12 04:02:28;;;;;;;;;;;;;;;19.00;50.59;100471.13;5007979;28;1902;-60
2021/05/12 04:04:54;;;;;;;;;;;;;;;19.02;50.48;100463.78;5010301;28;1528;-57
2021/05/12 04:07:20;;;;;;;;;;;;;;;19.08;50.96;100463.19;5014513;28;1622;-56
2021/05/12 04:09:46;;;;;;;;;;;;;;;19.17;50.57;100469.53;5015040;28;1114;-57
2021/05/12 04:12:13;;;;;;;;;;;;;;;19.31;49.99;100459.34;5013660;28;1722;-57
2021/05/12 04:14:39;;;;;;;;;;;;;;;19.36;49.46;100447.19;5012241;28;1442;-57
2021/05/12 04:17:05;;;;;;;;;;;;;;;19.50;49.62;100455.75;5009613;28;1390;-60
2021/05/12 04:19:31;;;;;;;;;;;;;;;19.69;49.71;100431.53;5014596;28;1328;-61
2021/05/12 04:21:58;;;;;;;;;;;;;;;19.97;47.93;100431.56;5008087;28;1907;-61
2021/05/12 04:24:24;;;;;;;;;;;;;;;20.12;47.98;100432.75;5007342;28;1557;-61
2021/05/12 04:26:50;;;;;;;;;;;;;;;20.32;47.85;100421.91;5013149;28;1710;-56
2021/05/12 04:29:17;;;;;;;;;;;;;;;20.40;47.65;100424.66;5005196;28;1568;-56
2021/05/12 04:31:44;;;;;;;;;;;;;;;20.54;46.71;100426.81;5014601;28;1055;-56
2021/05/12 04:34:10;;;;;;;;;;;;;;;20.57;47.01;100439.94;5013474;28;1715;-60
2021/05/12 04:36:36;;;;;;;;;;;;;;;20.54;47.42;100434.03;5009377;28;1710;-60
2021/05/12 04:39:03;;;;;;;;;;;;;;;20.51;47.81;100431.63;5008914;28;1462;-60
2021/05/12 04:41:29;;;;;;;;;;;;;;;20.40;48.14;100441.59;4997317;28;1911;-56
2021/05/12 04:43:55;;;;;;;;;;;;;;;20.35;47.77;100433.19;5007062;28;1711;-57
2021/05/12 04:46:22;;;;;;;;;;;;;;;20.35;47.74;100410.84;4998736;28;1754;-56
2021/05/12 04:48:48;;;;;;;;;;;;;;;20.37;47.77;100420.44;5004929;28;1639;-61
2021/05/12 04:51:14;;;;;;;;;;;;;;;20.32;48.19;100428.09;5012225;28;1532;-57
2021/05/12 04:53:40;;;;;;;;;;;;;;;20.21;48.44;100420.25;5013486;28;1638;-56
2021/05/12 04:56:07;;;;;;;;;;;;;;;20.15;48.89;100415.50;5013684;28;1347;-57
2021/05/12 04:58:33;;;;;;;;;;;;;;;20.08;48.87;100427.84;5011636;28;1564;-56
2021/05/12 05:00:59;;;;;;;;;;;;;;;19.95;49.49;100420.97;5009038;28;1902;-56
2021/05/12 05:03:26;;;;;;;;;;;;;;;19.86;48.58;100428.09;5013238;28;1496;-56
2021/05/12 05:05:52;;;;;;;;;;;;;;;19.84;48.97;100438.16;5013156;28;1674;-57
2021/05/12 05:08:18;;;;;;;;;;;;;;;19.81;49.41;100430.38;5013306;28;1460;-61
2021/05/12 05:10:44;;;;;;;;;;;;;;;19.77;48.88;100429.00;5013913;28;1388;-56
2021/05/12 05:13:10;;;;;;;;;;;;;;;19.80;48.87;100433.22;5011198;28;1511;-60
2021/05/12 05:15:36;;;;;;;;;;;;;;;19.76;49.41;100432.69;5004466;28;1567;-60
2021/05/12 05:18:03;;;;;;;;;;;;;;;19.72;48.77;100415.19;5009047;28;1564;-57
2021/05/12 05:20:30;;;;;;;;;;;;;;;19.69;49.01;100420.81;5011532;28;1910;-57
2021/05/12 05:22:56;;;;;;;;;;;;;;;19.70;49.01;100411.78;5007587;28;1497;-60
2021/05/12 05:25:23;;;;;;;;;;;;;;;19.69;49.09;100415.44;5011421;28;1550;-60
2021/05/12 05:27:49;;;;;;;;;;;;;;;19.72;48.90;100417.03;5013385;28;1733;-57
2021/05/12 05:30:15;;;;;;;;;;;;;;;19.74;48.67;100429.31;5008867;28;1575;-56
2021/05/12 05:32:41;;;;;;;;;;;;;;;19.76;48.23;100405.00;5006163;28;1704;-56
2021/05/12 05:35:08;;;;;;;;;;;;;;;19.75;48.52;100404.16;5007374;28;1482;-60
2021/05/12 05:37:35;;;;;;;;;;;;;;;19.74;48.17;100413.19;5004750;28;1567;-61
2021/05/12 05:40:01;;;;;;;;;;;;;;;19.79;49.02;100402.84;5009385;28;1348;-57
2021/05/12 05:42:27;;;;;;;;;;;;;;;19.83;49.74;100401.56;5011875;28;1903;-64
2021/05/12 05:44:53;;;;;;;;;;;;;;;19.84;48.21;100408.63;5008841;28;1450;-60
2021/05/12 05:47:19;;;;;;;;;;;;;;;19.87;49.07;100404.78;5005309;28;1446;-61
2021/05/12 05:49:46;;;;;;;;;;;;;;;19.89;47.92;100418.06;5007041;28;1465;-61
2021/05/12 05:52:12;;;;;;;;;;;;;;;19.93;47.56;100408.72;5012660;28;1189;-64
2021/05/12 05:54:39;;;;;;;;;;;;;;;19.88;49.18;100402.97;5011823;28;1898;-64
2021/05/12 05:57:06;;;;;;;;;;;;;;;19.82;50.24;100405.25;5012205;28;1509;-58
2021/05/12 05:59:32;;;;;;;;;;;;;;;19.84;50.43;100392.53;5004123;28;1541;-63
2021/05/12 06:02:00;;;;;;;;;;;;;;;19.89;49.78;100391.22;5005791;28;1902;-57
2021/05/12 06:04:26;;;;;;;;;;;;;;;19.82;50.48;100386.47;5011895;28;1329;-56
2021/05/12 06:06:54;;;;;;;;;;;;;;;19.81;50.39;100379.41;5004591;28;1706;-56
2021/05/12 06:09:20;;;;;;;;;;;;;;;19.82;50.50;100389.16;4999396;28;1762;-64
2021/05/12 06:11:47;;;;;;;;;;;;;;;19.81;50.55;100395.50;4998806;28;1453;-64
2021/05/12 06:14:14;;;;;;;;;;;;;;;19.80;50.30;100385.78;5011954;28;1558;-63
2021/05/12 06:16:40;;;;;;;;;;;;;;;19.77;50.41;100390.59;5005578;28;1887;-57
2021/05/12 06:19:06;;;;;;;;;;;;;;;19.80;50.30;100388.47;5005989;28;1667;-64
2021/05/12 06:21:32;;;;;;;;;;;;;;;19.77;51.13;100394.09;5008217;28;1974;-57
2021/05/12 06:23:58;;;;;;;;;;;;;;;19.77;50.84;100380.69;5007944;28;1608;-63
2021/05/12 06:26:24;;;;;;;;;;;;;;;19.78;50.79;100382.41;5013039;28;1391;-64
2021/05/12 06:28:51;;;;;;;;;;;;;;;19.77;50.71;100378.00;5006351;28;1517;-58
2021/05/12 06:31:17;;;;;;;;;;;;;;;19.79;50.74;100377.88;5009204;28;1762;-64
2021/05/12 06:33:46;;;;;;;;;;;;;;;19.78;50.83;100370.81;5011916;28;1528;-63
2021/05/12 06:36:12;;;;;;;;;;;;;;;19.77;50.84;100371.81;5007007;28;1595;-57
2021/05/12 06:38:38;;;;;;;;;;;;;;;19.77;51.02;100344.97;5008770;28;1575;-64
2021/05/12 06:41:04;;;;;;;;;;;;;;;19.76;50.96;100367.44;5012773;28;1980;-64
2021/05/12 06:43:31;;;;;;;;;;;;;;;19.77;51.16;100364.59;5012233;28;1612;-64
2021/05/12 06:45:58;;;;;;;;;;;;;;;19.76;51.01;100343.31;5012121;28;1615;-63
2021/05/12 06:48:24;;;;;;;;;;;;;;;19.76;51.15;100349.50;5007713;28;1589;-64
2021/05/12 06:50:50;;;;;;;;;;;;;;;19.76;50.85;100333.41;5003762;28;1571;-64
2021/05/12 06:53:24;;;;;;;;;;;;;;;19.78;49.94;100349.38;5007145;28;1511;-56
2021/05/12 06:55:51;;;;;;;;;;;;;;;19.80;50.85;100347.38;5005540;28;1471;-64
2021/05/12 06:58:17;;;;;;;;;;;;;;;19.75;50.96;100338.91;5007085;28;1482;-64
2021/05/12 07:00:43;;;;;;;;;;;;;;;19.80;50.11;100332.09;5011402;28;1985;-64
2021/05/12 07:03:10;;;;;;;;;;;;;;;19.84;50.26;100338.03;5013589;28;1631;-57
2021/05/12 07:05:36;;;;;;;;;;;;;;;19.85;50.19;100332.47;5006625;28;1989;-64
2021/05/12 07:08:02;;;;;;;;;;;;;;;19.88;49.82;100333.22;5008222;28;1690;-64
2021/05/12 07:10:28;;;;;;;;;;;;;;;19.88;50.23;100333.22;5016064;28;1714;-64
2021/05/12 07:12:55;;;;;;;;;;;;;;;19.88;49.37;100317.09;5014536;28;1566;-66
2021/05/12 07:15:21;;;;;;;;;;;;;;;19.86;49.84;100331.50;5014441;28;1454;-64
2021/05/12 07:17:49;;;;;;;;;;;;;;;19.92;49.11;100331.91;5009621;28;1529;-56
2021/05/12 07:20:16;;;;;;;;;;;;;;;19.88;50.39;100317.09;5011969;28;1536;-64
2021/05/12 07:22:42;;;;;;;;;;;;;;;19.88;49.76;100317.09;5015527;28;1910;-64
2021/05/12 07:25:09;;;;;;;;;;;;;;;19.90;49.51;100315.13;5011935;28;1344;-64
2021/05/12 07:27:35;;;;;;;;;;;;;;;19.90;49.80;100312.44;5010996;28;1505;-57
2021/05/12 07:30:01;;;;;;;;;;;;;;;19.92;49.22;100313.97;5014314;28;1498;-57
2021/05/12 07:32:27;;;;;;;;;;;;;;;19.92;49.14;100313.97;5010717;28;1481;-57
2021/05/12 07:34:54;;;;;;;;;;;;;;;19.95;49.14;100305.59;5012622;28;1481;-56
2021/05/12 07:37:21;;;;;;;;;;;;;;;20.03;48.90;100311.06;5010428;28;1434;-55
2021/05/12 07:39:47;;;;;;;;;;;;;;;20.04;48.53;100293.94;5015435;28;1395;-57
2021/05/12 07:42:15;;;;;;;;;;;;;;;20.05;48.60;100290.28;5013169;28;1910;-57
2021/05/12 07:44:42;;;;;;;;;;;;;;;20.05;48.10;100301.00;5008008;28;1615;-57
2021/05/12 07:47:09;;;;;;;;;;;;;;;20.05;47.89;100286.72;5010085;28;1418;-57
2021/05/12 07:49:37;;;;;;;;;;;;;;;20.08;47.42;100296.31;5006055;28;1420;-57
2021/05/12 07:52:04;;;;;;;;;;;;;;;20.01;46.97;100291.53;5013792;28;1415;-57
2021/05/12 07:54:31;;;;;;;;;;;;;;;20.08;47.35;100296.31;5012782;28;1769;-64
2021/05/12 07:56:58;;;;;;;;;;;;;;;20.09;46.99;100282.72;5014520;28;1508;-64
2021/05/12 07:59:24;;;;;;;;;;;;;;;20.10;46.64;100305.06;5014631;28;1566;-57
2021/05/12 08:01:50;;;;;;;;;;;;;;;20.08;46.89;100285.59;5006802;28;1906;-57
2021/05/12 08:04:17;;;;;;;;;;;;;;;20.06;47.29;100278.53;5009694;28;1707;-64
2021/05/12 08:06:43;;;;;;;;;;;;;;;20.08;47.08;100278.38;5010155;28;1757;-64
2021/05/12 08:09:10;;;;;;;;;;;;;;;20.09;46.61;100277.34;5010208;28;1478;-57
2021/05/12 08:11:37;;;;;;;;;;;;;;;20.10;47.50;100284.44;4996580;28;1612;-64
2021/05/12 08:14:03;;;;;;;;;;;;;;;20.10;47.13;100275.53;5005166;28;1356;-58
2021/05/12 08:16:29;;;;;;;;;;;;;;;20.06;46.59;100267.78;5008637;28;1770;-67
2021/05/12 08:18:56;;;;;;;;;;;;;;;20.11;46.55;100267.31;5006083;28;1655;-57
2021/05/12 08:21:22;;;;;;;;;;;;;;;20.10;46.66;100257.59;5014005;28;1902;-64
2021/05/12 08:23:48;;;;;;;;;;;;;;;20.08;46.76;100264.94;5014221;28;1419;-65
2021/05/12 08:26:14;;;;;;;;;;;;;;;20.11;45.45;100245.84;5014387;28;1423;-64
2021/05/12 08:28:41;;;;;;;;;;;;;;;20.09;45.10;100247.84;5009555;28;1518;-57
2021/05/12 08:31:07;;;;;;;;;;;;;;;20.12;44.96;100266.31;5012811;28;1519;-57
2021/05/12 08:33:35;;;;;;;;;;;;;;;20.11;44.91;100237.78;5005738;28;1607;-59
2021/05/12 08:36:01;;;;;;;;;;;;;;;20.13;45.54;100246.53;5009100;28;1571;-57
2021/05/12 08:38:27;;;;;;;;;;;;;;;20.10;45.38;100230.75;5009643;28;1551;-58
2021/05/12 08:40:56;;;;;;;;;;;;;;;20.12;44.79;100234.13;5002430;28;1910;-64
2021/05/12 08:43:24;;;;;;;;;;;;;;;20.13;44.65;100213.47;5008725;28;1534;-64
2021/05/12 08:45:51;;;;;;;;;;;;;;;20.13;44.83;100235.78;5009204;28;1583;-58
2021/05/12 08:48:18;;;;;;;;;;;;;;;20.11;45.38;100216.31;5013449;28;1581;-60
2021/05/12 08:50:45;;;;;;;;;;;;;;;20.15;44.67;100220.38;5008984;28;1592;-64
2021/05/12 08:53:11;;;;;;;;;;;;;;;20.14;44.27;100210.63;5012489;28;1466;-64
2021/05/12 08:55:37;;;;;;;;;;;;;;;20.12;44.05;100209.13;5014186;28;1396;-57
2021/05/12 08:58:04;;;;;;;;;;;;;;;20.13;44.03;100219.69;5009736;28;1718;-64
2021/05/12 09:00:30;;;;;;;;;;;;;;;20.09;43.24;100198.69;5013683;28;1579;-64
2021/05/12 09:02:59;;;;;;;;;;;;;;;20.12;42.35;100206.44;5009435;28;1975;-58
2021/05/12 09:05:25;;;;;;;;;;;;;;;20.18;43.19;100206.63;5009444;28;1509;-57
2021/05/12 09:07:52;;;;;;;;;;;;;;;20.19;43.24;100200.28;5012708;28;1603;-65
2021/05/12 09:10:18;;;;;;;;;;;;;;;20.17;43.13;100190.69;5013872;28;1572;-65
2021/05/12 09:12:48;;;;;;;;;;;;;;;20.15;43.59;100198.88;5013021;28;1453;-66
2021/05/12 09:15:16;;;;;;;;;;;;;;;20.12;43.73;100196.53;5013318;28;1495;-66
2021/05/12 09:17:43;;;;;;;;;;;;;;;20.11;43.27;100200.19;5004066;28;1395;-63
2021/05/12 09:20:29;;;;;;;;;;;;;;;20.09;43.30;100199.50;5010908;28;1802;-63
2021/05/12 09:23:06;;;;;;;;;;;;;;;20.09;42.90;100198.69;5011995;28;1981;-61
2021/05/12 09:25:33;;;;;;;;;;;;;;;20.05;43.06;100196.31;5013335;28;1170;-60
2021/05/12 09:28:08;;;;;;;;;;;;;;;20.04;42.28;100188.44;5010180;28;1525;-63
2021/05/12 09:30:36;;;;;;;;;;;;;;;20.08;42.98;100183.59;5010887;28;1955;-63
2021/05/12 09:33:02;;;;;;;;;;;;;;;20.04;42.37;100183.06;5012840;28;1532;-66
2021/05/12 09:35:29;;;;;;;;;;;;;;;20.04;42.42;100177.69;5010046;28;1441;-66
2021/05/12 09:37:55;;;;;;;;;;;;;;;20.02;42.46;100166.28;5011451;28;1721;-66
2021/05/12 09:40:22;;;;;;;;;;;;;;;20.00;42.18;100161.06;5013200;28;1388;-64
2021/05/12 09:42:55;;;;;;;;;;;;;;;19.99;41.99;100171.94;5012615;28;1910;-66
2021/05/12 09:45:23;;;;;;;;;;;;;;;20.00;41.69;100170.94;5008176;28;1627;-64
2021/05/12 09:47:50;;;;;;;;;;;;;;;20.00;42.03;100157.53;5001783;28;1497;-66
2021/05/12 09:50:20;;;;;;;;;;;;;;;20.01;42.34;100172.63;5008762;28;1464;-59
2021/05/12 09:52:50;;;;;;;;;;;;;;;20.09;42.28;100164.63;5013046;28;1524;-59
2021/05/12 09:55:16;;;;;;;;;;;;;;;20.05;41.90;100158.75;5009838;28;1507;-59
2021/05/12 09:57:58;;;;;;;;;;;;;;;20.04;42.71;100150.84;5009257;28;1655;-57
2021/05/12 10:00:29;;;;;;;;;;;;;;;20.03;42.53;100157.19;5010421;28;1425;-59
2021/05/12 10:02:56;;;;;;;;;;;;;;;19.99;43.02;100167.41;5009048;28;1906;-59
2021/05/12 10:05:22;;;;;;;;;;;;;;;19.96;42.87;100138.22;5008427;28;1501;-56
2021/05/12 10:07:53;;;;;;;;;;;;;;;19.96;42.56;100145.44;5010510;28;1454;-60
2021/05/12 10:10:35;;;;;;;;;;;;;;;19.96;42.67;100142.75;5010688;28;1258;-54
2021/05/12 10:13:01;;;;;;;;;;;;;;;19.96;42.17;100148.13;5012510;28;1605;-57
2021/05/12 10:15:27;;;;;;;;;;;;;;;19.98;42.21;100125.47;5009386;28;1524;-62
2021/05/12 10:17:53;;;;;;;;;;;;;;;19.94;41.94;100129.47;5005092;28;1564;-62
2021/05/12 10:20:20;;;;;;;;;;;;;;;19.90;41.57;100140.69;5008512;28;1403;-62
2021/05/12 10:22:46;;;;;;;;;;;;;;;19.93;41.70;100121.56;5006495;28;1902;-62
2021/05/12 10:25:13;;;;;;;;;;;;;;;20.03;38.94;100125.00;5014984;28;1002;-57
2021/05/12 10:27:41;;;;;;;;;;;;;;;20.04;39.86;100124.00;5012004;28;1597;-57
2021/05/12 10:30:08;;;;;;;;;;;;;;;19.91;39.50;100110.16;5012987;28;1590;-62
2021/05/12 10:32:36;;;;;;;;;;;;;;;19.92;39.06;100122.59;5012683;28;1785;-57
2021/05/12 10:35:03;;;;;;;;;;;;;;;19.89;38.42;100133.63;5014103;28;1620;-57
2021/05/12 10:37:31;;;;;;;;;;;;;;;19.89;38.22;100121.03;5009253;28;1488;-62
2021/05/12 10:40:01;;;;;;;;;;;;;;;19.96;38.68;100110.53;5018518;28;1063;-57
2021/05/12 10:42:47;;;;;;;;;;;;;;;20.08;35.96;100116.50;5014813;28;1902;-58
2021/05/12 10:45:19;;;;;;;;;;;;;;;20.16;34.51;100114.69;5015436;28;1586;-58
2021/05/12 10:47:45;;;;;;;;;;;;;;;20.25;34.22;100111.06;5008834;28;1427;-55
2021/05/12 10:50:11;;;;;;;;;;;;;;;20.18;33.74;100104.63;5015085;28;1607;-56
2021/05/12 10:52:37;;;;;;;;;;;;;;;20.14;34.46;100123.91;5014529;28;1529;-56
2021/05/12 10:55:04;;;;;;;;;;;;;;;20.08;34.82;100109.28;5009498;28;1585;-58
2021/05/12 10:57:45;;;;;;;;;;;;;;;20.10;34.09;100112.63;5013936;28;1560;-63
2021/05/12 11:00:11;;;;;;;;;;;;;;;20.16;33.55;100111.16;5009039;28;1788;-57
2021/05/12 11:02:59;;;;;;;;;;;;;;;20.15;34.14;100109.47;5014821;28;1910;-56
2021/05/12 11:05:39;;;;;;;;;;;;;;;20.17;33.57;100102.94;5009095;28;1505;-55
2021/05/12 11:08:15;;;;;;;;;;;;;;;20.17;34.15;100110.97;5006046;28;1544;-56
2021/05/12 11:10:51;;;;;;;;;;;;;;;20.24;34.47;100113.91;5012764;28;1242;-55
2021/05/12 11:13:21;;;;;;;;;;;;;;;20.17;34.46;100092.19;5016621;28;1530;-55
2021/05/12 11:15:51;;;;;;;;;;;;;;;20.24;33.85;100092.41;5016272;28;1471;-55
2021/05/12 11:18:32;;;;;;;;;;;;;;;20.25;34.09;100088.72;5012123;28;1526;-55
2021/05/12 11:24:08;;;;;;;;;;;;;;;20.23;33.21;100070.09;5124079;27;1852;-49
2021/05/12 11:26:47;;;;;;;;;;;;;;;20.26;32.40;100080.50;5110681;28;1623;-50
2021/05/12 11:32:09;;;;;;;;;;;;;;;20.20;32.75;100074.94;5106264;28;1561;-50
2021/05/12 11:34:36;;;;;;;;;;;;;;;20.15;33.95;100067.34;5111016;28;1762;-51
2021/05/12 11:37:07;;;;;;;;;;;;;;;20.20;33.39;100065.03;5107183;28;1399;-49
2021/05/12 11:39:33;;;;;;;;;;;;;;;20.18;33.90;100050.94;5109923;28;1638;-50
2021/05/12 11:42:00;;;;;;;;;;;;;;;20.19;34.25;100059.81;5109222;28;1909;-50
2021/05/12 11:44:26;;;;;;;;;;;;;;;20.11;35.67;100057.94;5102167;28;1865;-50
2021/05/12 11:46:51;;;;;;;;;;;;;;;20.09;35.10;100070.69;5102901;28;1606;-50
2021/05/12 11:49:19;;;;;;;;;;;;;;;20.09;35.75;100068.00;5106658;28;1809;-49
2021/05/12 11:51:46;;;;;;;;;;;;;;;20.10;35.63;100071.53;5106110;28;1975;-50
2021/05/12 11:54:16;;;;;;;;;;;;;;;20.02;35.85;100058.91;5107105;28;1877;-50
2021/05/12 11:56:43;;;;;;;;;;;;;;;20.03;37.05;100052.53;5108434;28;1731;-50
2021/05/12 11:59:13;;;;;;;;;;;;;;;20.01;36.34;100046.47;5102821;28;1610;-50
2021/05/12 12:01:43;;;;;;;;;;;;;;;20.04;37.08;100055.06;5105694;28;2083;-49
2021/05/12 12:04:16;;;;;;;;;;;;;;;20.04;37.84;100041.66;5104679;28;1939;-50
2021/05/12 12:06:43;;;;;;;;;;;;;;;20.04;39.33;100036.28;5108946;28;1872;-50
2021/05/12 12:09:09;;;;;;;;;;;;;;;20.04;38.53;100048.88;5100550;28;1632;-49
2021/05/12 12:11:35;;;;;;;;;;;;;;;20.05;39.54;100037.09;5087730;28;1425;-50
2021/05/12 12:14:02;;;;;;;;;;;;;;;20.04;39.10;100032.75;5085256;28;2083;-50
2021/05/12 12:16:28;;;;;;;;;;;;;;;20.02;39.25;100030.22;5095171;28;1821;-50
2021/05/12 12:18:55;;;;;;;;;;;;;;;20.04;39.57;100032.75;5084670;28;2096;-49
2021/05/12 12:21:29;;;;;;;;;;;;;;;20.05;39.77;100034.44;5083297;28;1925;-50
2021/05/12 12:23:57;;;;;;;;;;;;;;;20.07;39.91;100032.41;5047285;28;1872;-50
2021/05/12 12:26:25;;;;;;;;;;;;;;;20.03;40.26;100023.00;5049627;28;1684;-50
2021/05/12 12:28:53;;;;;;;;;;;;;;;20.02;40.63;100018.66;5034954;28;1675;-50
2021/05/12 12:31:23;;;;;;;;;;;;;;;20.01;40.50;100004.38;5046925;28;1778;-50
2021/05/12 12:34:17;;;;;;;;;;;;;;;20.01;40.52;99982.91;5047494;28;1726;-50
2021/05/12 12:37:06;;;;;;;;;;;;;;;20.10;40.50;99999.91;5032459;28;1565;-49
2021/05/12 12:39:36;;;;;;;;;;;;;;;20.11;39.96;99977.41;5034458;28;1848;-49
2021/05/12 12:42:03;;;;;;;;;;;;;;;20.16;40.12;99983.16;5034608;28;1906;-50
2021/05/12 12:44:33;;;;;;;;;;;;;;;20.13;40.05;99983.47;5023977;28;1756;-50
2021/05/12 12:46:59;;;;;;;;;;;;;;;20.22;40.05;99978.97;5028945;28;2278;-49
2021/05/12 12:49:35;;;;;;;;;;;;;;;20.26;39.48;99973.13;5036823;28;1529;-50
2021/05/12 12:52:16;;;;;;;;;;;;;;;20.32;38.88;99979.69;5036070;28;1731;-50
2021/05/12 12:54:57;;;;;;;;;;;;;;;20.39;37.16;99978.03;5031793;28;1749;-50
2021/05/12 12:57:31;;;;;;;;;;;;;;;20.43;37.90;99979.38;5032809;28;1880;-50
2021/05/12 13:00:14;;;;;;;;;;;;;;;20.53;34.24;99968.50;5029679;28;1532;-49
2021/05/12 13:02:43;;;;;;;;;;;;;;;20.44;36.05;99964.94;5042155;28;1898;-50
2021/05/12 13:05:11;;;;;;;;;;;;;;;20.36;36.64;99967.59;5030134;28;1494;-49